Time;durP1;ratioP1;P1;durP2;ratioP2;P2;SDS_P1;SDS_P2;PMS_P1;PMS_P2;Temp;Humidity;BMP_temperature;BMP_pressure;BME280_temperature;BME280_humidity;BME280_pressure;Samples;Min_cycle;Max_cycle;Signal;HPM_P1;HPM_P2
2023/07/10 00:01:24;;;;;;;60.55;3.65;;;;;;;25.59;53.95;99656.13;7310567;19;131320;-35
2023/07/10 00:03:50;;;;;;;33.30;1.90;;;;;;;25.81;53.80;99657.28;7311625;19;129055;-36
2023/07/10 00:06:16;;;;;;;29.80;1.90;;;;;;;25.90;53.81;99657.13;7309840;19;129591;-36
2023/07/10 00:08:42;;;;;;;22.37;1.37;;;;;;;25.94;54.07;99647.91;7310687;19;129630;-34
2023/07/10 00:11:29;;;;;;;27.97;1.67;;;;;;;26.00;54.28;99657.78;7309526;19;130366;-31
2023/07/10 00:13:55;;;;;;;26.15;1.50;;;;;;;25.99;53.67;99645.59;7310772;19;129208;-36
2023/07/10 00:16:22;;;;;;;23.60;1.52;;;;;;;26.01;54.08;99648.94;7310836;19;130084;-37
2023/07/10 00:18:48;;;;;;;51.33;2.90;;;;;;;26.00;53.62;99652.50;7309080;19;130679;-34
2023/07/10 00:21:14;;;;;;;;;;;;;;;26.12;54.36;99645.94;7308403;19;128899;-37
2023/07/10 00:23:39;;;;;;;54.00;3.30;;;;;;;26.04;54.16;99639.84;7309328;19;129023;-31
2023/07/10 00:26:20;;;;;;;31.83;1.93;;;;;;;26.05;53.75;99638.88;7308625;19;129929;-36
2023/07/10 00:28:51;;;;;;;74.10;4.28;;;;;;;26.03;54.20;99641.66;7308996;19;130193;-31
2023/07/10 00:31:16;;;;;;;31.17;1.83;;;;;;;26.03;53.94;99632.94;7310914;19;129375;-33
2023/07/10 00:33:41;;;;;;;26.77;1.63;;;;;;;25.52;50.88;99636.72;7311558;19;130249;-33
2023/07/10 00:36:38;;;;;;;22.70;1.43;;;;;;;25.30;50.27;99632.88;7308555;19;130853;-38
2023/07/10 00:39:25;;;;;;;54.95;3.22;;;;;;;25.25;51.24;99640.47;7306448;19;131367;-37
2023/07/10 00:42:04;;;;;;;31.03;1.80;;;;;;;25.45;54.34;99635.75;7311151;19;129524;-29
2023/07/10 00:44:35;;;;;;;27.45;1.60;;;;;;;25.72;53.62;99632.75;7309744;19;129729;-36
2023/07/10 00:47:15;;;;;;;83.78;4.88;;;;;;;25.86;54.12;99634.75;7306188;19;130315;-39
2023/07/10 00:49:50;;;;;;;22.27;1.38;;;;;;;25.93;53.55;99635.72;7311172;19;129319;-35
2023/07/10 00:52:24;;;;;;;79.03;4.57;;;;;;;25.98;53.92;99632.59;7316544;19;130017;-37
2023/07/10 00:54:53;;;;;;;32.90;1.95;;;;;;;25.99;53.56;99635.06;7317665;19;129335;-34
2023/07/10 00:57:23;;;;;;;60.78;3.55;;;;;;;26.01;54.37;99622.56;7315186;19;131924;-35
2023/07/10 00:59:50;;;;;;;25.45;1.58;;;;;;;26.02;54.04;99623.38;7315039;19;130198;-32
2023/07/10 01:02:21;;;;;;;58.20;3.35;;;;;;;26.03;54.45;99623.22;7316017;19;129066;-37
2023/07/10 01:04:59;;;;;;;38.95;2.22;;;;;;;26.05;53.61;99615.97;7316260;19;129357;-34
2023/07/10 01:07:27;;;;;;;59.63;3.65;;;;;;;26.04;54.21;99624.88;7315111;19;130786;-34
2023/07/10 01:10:03;;;;;;;30.92;1.88;;;;;;;26.06;54.62;99619.44;7315886;19;130435;-35
2023/07/10 01:12:30;;;;;;;41.92;2.55;;;;;;;26.03;54.36;99625.84;7314113;19;128934;-36
2023/07/10 01:14:55;;;;;;;37.42;2.15;;;;;;;25.48;50.01;99616.97;7316616;19;128956;-31
2023/07/10 01:17:21;;;;;;;34.80;2.07;;;;;;;25.35;51.08;99608.75;7316277;19;129053;-30
2023/07/10 01:19:48;;;;;;;43.10;2.43;;;;;;;25.29;49.55;99610.19;7313907;19;130312;-34
2023/07/10 01:22:15;;;;;;;27.33;1.63;;;;;;;25.47;53.33;99618.78;7314444;19;128804;-38
2023/07/10 01:24:41;;;;;;;66.65;3.90;;;;;;;25.77;53.64;99614.66;7314852;19;129475;-37
2023/07/10 01:27:12;;;;;;;32.27;2.23;;;;;;;25.89;53.57;99623.88;7314138;19;129617;-33
2023/07/10 01:29:43;;;;;;;26.60;1.60;;;;;;;25.93;54.19;99627.84;7314438;19;130378;-40
2023/07/10 01:32:11;;;;;;;24.60;1.55;;;;;;;25.89;53.52;99615.13;7315652;19;130122;-33
2023/07/10 01:34:41;;;;;;;30.50;1.85;;;;;;;26.00;53.57;99649.88;7315484;19;129177;-35
2023/07/10 01:37:07;;;;;;;80.82;4.43;;;;;;;26.03;53.84;99743.63;7314553;19;129309;-32
2023/07/10 01:39:45;;;;;;;28.38;1.60;;;;;;;26.05;53.62;99776.69;7315555;19;130319;-36
2023/07/10 01:42:11;;;;;;;23.60;1.52;;;;;;;26.06;54.11;99793.34;7315325;19;129177;-34
2023/07/10 01:44:39;;;;;;;28.67;1.77;;;;;;;26.08;54.04;99796.66;7314527;19;129029;-33
2023/07/10 01:47:07;;;;;;;67.35;4.30;;;;;;;26.08;54.16;99817.72;7311272;19;130157;-31
2023/07/10 01:49:42;;;;;;;61.90;3.58;;;;;;;26.09;54.11;99828.09;7314148;19;130359;-32
2023/07/10 01:52:10;;;;;;;61.17;3.63;;;;;;;26.08;54.30;99817.72;7314934;19;129925;-37
2023/07/10 01:54:36;;;;;;;29.35;1.80;;;;;;;25.67;50.21;99814.13;7314389;19;128974;-34
2023/07/10 01:57:02;;;;;;;84.30;5.28;;;;;;;25.45;50.27;99826.09;7312574;19;130034;-35
2023/07/10 01:59:28;;;;;;;47.95;2.75;;;;;;;25.33;50.05;99826.50;7313729;19;130323;-29
2023/07/10 02:01:57;;;;;;;41.47;2.40;;;;;;;25.34;50.87;99812.34;7312782;19;129011;-40
2023/07/10 02:04:23;;;;;;;12.80;0.95;;;;;;;25.69;53.64;99796.38;7314817;19;129333;-33
2023/07/10 02:06:49;;;;;;;29.53;1.73;;;;;;;25.89;53.28;99775.81;7312537;19;130123;-32
2023/07/10 02:09:15;;;;;;;66.63;3.70;;;;;;;25.94;53.89;99741.91;7311910;19;130303;-36
2023/07/10 02:11:40;;;;;;;36.67;2.03;;;;;;;26.00;53.71;99726.28;7314729;19;128925;-35
2023/07/10 02:14:07;;;;;;;48.77;2.80;;;;;;;26.03;53.24;99746.25;7314283;19;129196;-35
2023/07/10 02:16:33;;;;;;;31.55;1.90;;;;;;;26.03;53.30;99747.03;7314007;19;130209;-33
2023/07/10 02:18:59;;;;;;;46.50;2.57;;;;;;;26.06;54.10;99730.94;7314014;19;130719;-32
2023/07/10 02:21:25;;;;;;;33.08;2.13;;;;;;;26.07;53.92;99716.75;7314823;19;129330;-36
2023/07/10 02:23:50;;;;;;;11.27;0.90;;;;;;;26.09;54.00;99719.22;7314339;19;128893;-30
2023/07/10 02:26:16;;;;;;;50.10;2.90;;;;;;;26.08;54.28;99728.94;7312582;19;130102;-36
2023/07/10 02:28:42;;;;;;;43.80;2.57;;;;;;;26.06;54.11;99723.03;7313451;19;130940;-31
2023/07/10 02:31:07;;;;;;;52.23;3.03;;;;;;;26.09;53.94;99720.06;7312175;19;128879;-39
2023/07/10 02:33:33;;;;;;;29.00;1.80;;;;;;;26.09;54.48;99711.31;7313628;19;129146;-34
2023/07/10 02:35:59;;;;;;;56.53;3.25;;;;;;;25.54;50.56;99697.94;7312583;19;129510;-34
2023/07/10 02:38:24;;;;;;;77.07;4.47;;;;;;;25.43;50.54;99690.34;7314039;19;130362;-35
2023/07/10 02:40:50;;;;;;;25.03;1.53;;;;;;;25.34;49.83;99688.63;7313032;19;129309;-29
2023/07/10 02:43:15;;;;;;;26.20;1.67;;;;;;;25.52;53.84;99686.72;7313414;19;129399;-36
2023/07/10 02:45:41;;;;;;;25.87;1.63;;;;;;;25.82;53.38;99680.84;7313201;19;129026;-39
2023/07/10 02:48:06;;;;;;;38.80;2.33;;;;;;;25.88;53.41;99659.13;7312636;19;130513;-35
2023/07/10 02:50:32;;;;;;;67.50;4.10;;;;;;;25.97;53.67;99666.00;7311053;19;129526;-38
2023/07/10 02:52:57;;;;;;;35.00;2.00;;;;;;;26.02;54.15;99655.81;7313889;19;129059;-34
2023/07/10 02:55:23;;;;;;;27.50;1.77;;;;;;;26.06;53.46;99651.06;7312122;19;130071;-35
2023/07/10 02:57:48;;;;;;;42.30;2.63;;;;;;;26.08;53.82;99649.09;7312452;19;130413;-32
2023/07/10 03:00:14;;;;;;;26.67;1.77;;;;;;;26.10;53.49;99645.28;7311896;19;128897;-35
2023/07/10 03:02:40;;;;;;;65.53;4.00;;;;;;;26.10;53.81;99636.56;7311678;19;130108;-35
2023/07/10 03:05:06;;;;;;;50.17;2.78;;;;;;;26.10;54.01;99636.56;7313483;19;130330;-35
2023/07/10 03:07:32;;;;;;;43.60;2.70;;;;;;;26.11;54.23;99627.66;7306788;19;132256;-39
2023/07/10 03:09:57;;;;;;;25.17;1.60;;;;;;;26.10;53.81;99613.66;7311435;19;130524;-37
2023/07/10 03:12:23;;;;;;;21.03;1.30;;;;;;;26.08;53.72;99605.09;7309927;19;130147;-33
2023/07/10 03:14:49;;;;;;;61.67;3.47;;;;;;;25.81;51.44;99608.06;7310463;19;130906;-36
2023/07/10 03:17:14;;;;;;;51.37;3.13;;;;;;;25.38;50.09;99597.88;7312451;19;130160;-36
2023/07/10 03:19:40;;;;;;;38.13;2.53;;;;;;;25.40;50.42;99615.16;7309928;19;129371;-33
2023/07/10 03:22:05;;;;;;;24.10;1.43;;;;;;;25.32;50.00;99630.09;7311802;19;129127;-34
2023/07/10 03:24:31;;;;;;;39.93;2.33;;;;;;;25.72;53.45;99632.75;7312374;19;129441;-35
2023/07/10 03:26:57;;;;;;;53.37;3.00;;;;;;;25.90;53.07;99629.97;7309111;19;131081;-33
2023/07/10 03:29:22;;;;;;;14.43;1.10;;;;;;;25.98;53.74;99625.50;7311280;19;129249;-36
2023/07/10 03:31:47;;;;;;;66.30;3.90;;;;;;;26.02;53.62;99633.91;7310682;19;128807;-35
2023/07/10 03:34:13;;;;;;;32.13;1.90;;;;;;;26.06;54.10;99630.81;7311936;19;130189;-35
2023/07/10 03:36:39;;;;;;;16.63;1.13;;;;;;;26.08;53.27;99628.78;7311614;19;131150;-32
2023/07/10 03:39:05;;;;;;;8.77;0.63;;;;;;;26.09;53.90;99619.94;7309915;19;128877;-32
2023/07/10 03:41:32;;;;;;;44.73;2.53;;;;;;;26.10;53.58;99632.09;7311730;19;129514;-35
2023/07/10 03:43:57;;;;;;;63.50;3.90;;;;;;;26.08;53.93;99628.78;7311046;19;130240;-35
2023/07/10 03:46:22;;;;;;;11.20;0.87;;;;;;;26.10;54.01;99632.09;7310165;19;129565;-36
2023/07/10 03:48:48;;;;;;;36.03;2.30;;;;;;;26.10;54.35;99626.03;7310451;19;128993;-36
2023/07/10 03:51:14;;;;;;;31.13;1.83;;;;;;;26.12;53.98;99627.50;7307593;19;129123;-33
2023/07/10 03:53:39;;;;;;;27.10;1.77;;;;;;;26.12;54.00;99635.41;7311933;19;130057;-33
2023/07/10 03:56:05;;;;;;;38.17;2.50;;;;;;;25.64;51.16;99635.41;7310184;19;131371;-35
2023/07/10 03:58:34;;;;;;;28.37;1.73;;;;;;;25.42;50.56;99625.53;7309930;19;129188;-33
2023/07/10 04:01:00;;;;;;;60.83;3.65;;;;;;;25.33;50.44;99627.31;7307573;19;129020;-39
2023/07/10 04:03:27;;;;;;;;;;;;;;;25.48;54.11;99630.16;7312429;19;130219;-33
2023/07/10 04:05:54;;;;;;;27.13;1.65;;;;;;;25.80;53.50;99627.50;7310503;19;131365;-35
2023/07/10 04:08:27;;;;;;;22.65;1.50;;;;;;;25.94;53.65;99632.09;7309708;19;128914;-36
2023/07/10 04:10:54;;;;;;;32.30;1.80;;;;;;;25.98;53.97;99638.66;7309721;19;129493;-33
2023/07/10 04:13:19;;;;;;;49.97;3.15;;;;;;;26.04;53.67;99642.47;7309623;19;129500;-33
2023/07/10 04:16:00;;;;;;;27.60;1.90;;;;;;;26.09;54.01;99655.97;7311284;19;131064;-38
2023/07/10 04:18:33;;;;;;;26.55;1.52;;;;;;;26.09;53.90;99651.53;7309245;19;129400;-35
2023/07/10 04:21:00;;;;;;;19.58;1.23;;;;;;;26.10;53.78;99647.91;7307207;19;131197;-32
2023/07/10 04:23:26;;;;;;;22.25;1.38;;;;;;;26.10;53.55;99650.53;7311443;19;129069;-35
2023/07/10 04:25:52;;;;;;;42.57;2.47;;;;;;;26.10;54.00;99653.19;7317160;19;130471;-34
2023/07/10 04:28:18;;;;;;;64.10;3.77;;;;;;;26.04;54.23;99638.03;7316599;19;129789;-31
2023/07/10 04:30:47;;;;;;;20.23;1.33;;;;;;;26.13;54.54;99634.38;7316156;19;129770;-35
2023/07/10 04:33:14;;;;;;;47.47;2.70;;;;;;;26.12;53.74;99634.56;7316853;19;130683;-32
2023/07/10 04:35:40;;;;;;;39.25;2.38;;;;;;;25.73;51.18;99624.69;7317890;19;129731;-35
2023/07/10 04:38:06;;;;;;;25.33;1.45;;;;;;;25.51;50.11;99624.53;7317318;19;129761;-31
2023/07/10 04:40:31;;;;;;;22.85;1.50;;;;;;;25.44;49.44;99627.00;7315723;19;130132;-37
2023/07/10 04:42:57;;;;;;;44.00;2.57;;;;;;;25.41;50.27;99614.19;7318061;19;130951;-32
2023/07/10 04:45:22;;;;;;;66.63;3.97;;;;;;;25.74;53.54;99609.72;7317683;19;131241;-37
2023/07/10 04:47:48;;;;;;;55.17;3.00;;;;;;;25.92;53.63;99591.91;7315756;19;129200;-32
2023/07/10 04:50:13;;;;;;;23.47;1.40;;;;;;;26.01;53.28;99596.22;7314609;19;131323;-39
2023/07/10 04:52:39;;;;;;;40.83;2.43;;;;;;;26.05;53.52;99586.97;7317779;19;129391;-33
2023/07/10 04:55:04;;;;;;;34.23;2.10;;;;;;;25.98;53.23;99578.06;7317524;19;130028;-33
2023/07/10 04:57:29;;;;;;;69.87;4.27;;;;;;;26.08;53.97;99585.84;7316251;19;129837;-27
2023/07/10 04:59:55;;;;;;;34.93;2.10;;;;;;;26.11;53.75;99588.97;7316218;19;130394;-32
2023/07/10 05:02:20;;;;;;;65.30;3.77;;;;;;;26.13;53.92;99588.78;7316744;19;130238;-38
2023/07/10 05:04:45;;;;;;;28.23;1.73;;;;;;;26.12;53.74;99576.59;7317710;19;129171;-34
2023/07/10 05:07:11;;;;;;;64.77;4.13;;;;;;;26.13;53.91;99584.31;7315267;19;128912;-34
2023/07/10 05:09:36;;;;;;;48.83;2.90;;;;;;;26.12;54.45;99577.41;7314276;19;128979;-35
2023/07/10 05:12:02;;;;;;;40.33;2.23;;;;;;;26.14;54.12;99580.72;7316251;19;130172;-32
2023/07/10 05:14:27;;;;;;;26.93;1.67;;;;;;;26.03;54.10;99554.69;7317141;19;129468;-34
2023/07/10 05:16:53;;;;;;;31.10;1.80;;;;;;;25.58;49.86;99572.88;7316444;19;129268;-37
2023/07/10 05:19:18;;;;;;;35.93;2.33;;;;;;;25.31;49.83;99565.28;7313110;19;131193;-35
2023/07/10 05:21:43;;;;;;;80.17;4.57;;;;;;;25.35;50.22;99575.34;7315021;19;130123;-34
2023/07/10 05:24:09;;;;;;;39.40;2.23;;;;;;;25.56;53.07;99574.84;7317070;19;129714;-31
2023/07/10 05:26:34;;;;;;;26.47;1.67;;;;;;;25.86;53.75;99579.44;7315625;19;129531;-37
2023/07/10 05:28:59;;;;;;;35.80;2.00;;;;;;;25.87;53.26;99562.63;7314628;19;130159;-36
2023/07/10 05:31:25;;;;;;;41.37;2.33;;;;;;;26.02;53.55;99579.41;7316125;19;131274;-37
2023/07/10 05:33:50;;;;;;;33.13;2.23;;;;;;;26.05;53.23;99573.81;7314251;19;130470;-36
2023/07/10 05:36:17;;;;;;;28.97;1.70;;;;;;;26.08;53.86;99570.81;7314119;19;129276;-33
2023/07/10 05:38:48;;;;;;;47.13;2.67;;;;;;;26.10;53.79;99565.41;7313599;19;129314;-35
2023/07/10 05:41:14;;;;;;;37.00;2.10;;;;;;;26.09;54.22;99571.66;7313369;19;131110;-35
2023/07/10 05:43:40;;;;;;;41.75;2.38;;;;;;;26.10;53.74;99573.31;7315050;19;131087;-35
2023/07/10 05:46:05;;;;;;;27.73;1.70;;;;;;;26.13;53.84;99565.88;7313570;19;128785;-30
2023/07/10 05:48:30;;;;;;;39.77;2.23;;;;;;;26.14;53.86;99570.16;7314248;19;129700;-33
2023/07/10 05:50:56;;;;;;;73.17;4.13;;;;;;;26.10;53.68;99571.50;7311823;19;129177;-37
2023/07/10 05:53:22;;;;;;;33.13;2.00;;;;;;;26.13;53.99;99571.13;7314604;19;131080;-36
2023/07/10 05:55:49;;;;;;;46.93;2.73;;;;;;;26.14;53.81;99578.06;7314261;19;129357;-38
2023/07/10 05:58:15;;;;;;;42.65;2.35;;;;;;;25.63;50.39;99571.38;7313472;19;129463;-34
2023/07/10 06:00:42;;;;;;;27.58;1.75;;;;;;;25.46;50.07;99579.47;7312594;19;129342;-37
2023/07/10 06:03:08;;;;;;;36.58;2.22;;;;;;;25.35;50.00;99590.31;7313051;19;129237;-32
2023/07/10 06:05:34;;;;;;;27.92;1.70;;;;;;;25.48;53.57;99657.31;7315017;19;129248;-32
2023/07/10 06:07:59;;;;;;;64.20;3.93;;;;;;;25.85;53.41;99725.28;7309644;19;129270;-30
2023/07/10 06:10:24;;;;;;;22.13;1.33;;;;;;;26.00;53.69;99726.28;7312622;19;130481;-35
2023/07/10 06:12:50;;;;;;;28.10;1.77;;;;;;;26.06;53.67;99715.13;7313323;19;130071;-42
2023/07/10 06:15:15;;;;;;;26.60;1.57;;;;;;;26.08;53.92;99647.25;7313192;19;128815;-37
2023/07/10 06:17:40;;;;;;;42.13;2.40;;;;;;;26.11;53.23;99654.84;7311944;19;129980;-36
2023/07/10 06:20:06;;;;;;;55.97;3.40;;;;;;;26.13;54.09;99658.09;7311994;19;129516;-33
2023/07/10 06:22:32;;;;;;;25.30;1.67;;;;;;;26.13;53.63;99649.41;7313488;19;130390;-29
2023/07/10 06:24:57;;;;;;;54.47;3.40;;;;;;;26.16;53.44;99641.97;7312341;19;128912;-40
2023/07/10 06:27:23;;;;;;;44.03;2.70;;;;;;;26.15;54.25;99632.41;7311827;19;129314;-37
2023/07/10 06:29:48;;;;;;;15.97;1.10;;;;;;;26.15;54.00;99629.78;7313472;19;129007;-33
2023/07/10 06:32:13;;;;;;;54.10;3.23;;;;;;;26.15;53.59;99656.13;7312816;19;130263;-34
2023/07/10 06:34:39;;;;;;;33.90;2.00;;;;;;;26.15;54.30;99650.88;7313705;19;129000;-35
2023/07/10 06:37:04;;;;;;;91.30;5.73;;;;;;;26.15;53.60;99628.94;7311716;19;128800;-35
2023/07/10 06:39:30;;;;;;;24.73;1.73;;;;;;;25.69;50.54;99617.31;7312701;19;130198;-34
2023/07/10 06:41:55;;;;;;;24.67;1.53;;;;;;;25.50;49.53;99617.66;7313498;19;129466;-39
2023/07/10 06:44:21;;;;;;;38.80;2.03;;;;;;;25.43;49.78;99606.13;7312096;19;128813;-34
2023/07/10 06:46:46;;;;;;;34.73;2.07;;;;;;;25.30;49.32;99595.22;7312921;19;129388;-34
2023/07/10 06:49:11;;;;;;;46.63;3.07;;;;;;;25.79;53.63;99596.88;7311370;19;130113;-34
2023/07/10 06:51:37;;;;;;;33.60;2.03;;;;;;;25.95;53.36;99596.84;7312341;19;129250;-33
2023/07/10 06:54:03;;;;;;;47.97;2.80;;;;;;;26.03;53.19;99593.44;7312628;19;129745;-34
2023/07/10 06:56:30;;;;;;;34.07;1.97;;;;;;;26.05;53.46;99586.19;7313289;19;128844;-32
2023/07/10 06:58:55;;;;;;;28.60;1.75;;;;;;;26.09;54.09;99577.75;7312719;19;130382;-34
2023/07/10 07:01:20;;;;;;;64.27;3.90;;;;;;;26.12;53.29;99589.75;7312348;19;130315;-33
2023/07/10 07:03:46;;;;;;;30.07;1.80;;;;;;;26.13;53.59;99592.22;7313471;19;129406;-32
2023/07/10 07:06:11;;;;;;;58.10;3.50;;;;;;;26.15;54.23;99581.50;7312569;19;129236;-39
2023/07/10 07:08:37;;;;;;;22.90;1.67;;;;;;;26.15;53.68;99579.72;7312425;19;130240;-31
2023/07/10 07:11:02;;;;;;;18.93;1.27;;;;;;;26.13;53.44;99557.97;7310975;19;130344;-35
2023/07/10 07:13:27;;;;;;;50.93;2.97;;;;;;;26.15;53.61;99561.25;7310824;19;129078;-31
2023/07/10 07:15:55;;;;;;;29.20;1.80;;;;;;;26.16;54.43;99547.13;7313050;19;129034;-35
2023/07/10 07:18:22;;;;;;;74.70;4.43;;;;;;;26.02;51.82;99533.78;7311282;19;129996;-38
2023/07/10 07:20:48;;;;;;;39.53;2.35;;;;;;;25.61;50.74;99533.03;7310089;19;130714;-32
2023/07/10 07:23:13;;;;;;;57.00;3.37;;;;;;;25.45;49.79;99527.81;7312255;19;129519;-36
2023/07/10 07:25:40;;;;;;;24.10;1.53;;;;;;;25.40;50.07;99522.22;7313162;19;129123;-38
2023/07/10 07:28:05;;;;;;;23.70;1.60;;;;;;;25.69;53.27;99527.75;7308772;19;130095;-32
2023/07/10 07:30:31;;;;;;;49.00;2.83;;;;;;;25.92;53.15;99512.88;7308872;19;129127;-36
2023/07/10 07:32:57;;;;;;;41.88;2.45;;;;;;;26.01;53.39;99511.91;7311675;19;128881;-34
2023/07/10 07:35:23;;;;;;;62.10;3.83;;;;;;;25.97;53.17;99488.66;7311336;19;129176;-33
2023/07/10 07:37:48;;;;;;;25.30;1.77;;;;;;;26.08;53.40;99507.59;7311787;19;129521;-36
2023/07/10 07:40:16;;;;;;;37.00;2.17;;;;;;;26.12;53.75;99502.81;7310041;19;130320;-41
2023/07/10 07:42:45;;;;;;;36.72;2.15;;;;;;;26.13;53.93;99505.25;7311582;19;129103;-34
2023/07/10 07:45:10;;;;;;;44.90;2.50;;;;;;;26.14;53.81;99506.09;7311261;19;130943;-35
2023/07/10 07:47:36;;;;;;;31.47;1.97;;;;;;;26.15;53.60;99508.56;7307700;19;130127;-33
2023/07/10 07:50:01;;;;;;;20.70;1.30;;;;;;;26.15;53.84;99516.47;7310232;19;130410;-36
2023/07/10 07:52:27;;;;;;;76.90;4.53;;;;;;;26.17;53.88;99516.28;7310449;19;130999;-39
2023/07/10 07:54:52;;;;;;;16.50;1.10;;;;;;;26.08;53.57;99497.03;7311728;19;129596;-34
2023/07/10 07:57:18;;;;;;;42.87;2.53;;;;;;;26.16;54.08;99519.94;7310183;19;130587;-41
2023/07/10 07:59:43;;;;;;;40.00;2.27;;;;;;;25.87;51.07;99524.91;7307953;19;130661;-38
2023/07/10 08:02:09;;;;;;;35.47;2.13;;;;;;;25.56;50.77;99535.34;7312064;19;131667;-37
2023/07/10 08:04:35;;;;;;;62.22;3.70;;;;;;;25.45;50.31;99535.72;7310990;19;131364;-35
2023/07/10 08:07:01;;;;;;;51.03;3.20;;;;;;;25.41;49.91;99523.84;7309426;19;129589;-37
2023/07/10 08:09:26;;;;;;;64.40;3.63;;;;;;;25.75;53.66;99519.19;7309937;19;130357;-39
2023/07/10 08:11:51;;;;;;;28.80;1.73;;;;;;;25.96;53.75;99524.75;7311474;19;130513;-37
2023/07/10 08:14:17;;;;;;;16.77;1.13;;;;;;;26.03;53.14;99515.19;7310456;19;130275;-27
2023/07/10 08:16:42;;;;;;;38.10;2.37;;;;;;;26.07;53.57;99513.88;7309445;19;129376;-34
2023/07/10 08:19:07;;;;;;;53.77;2.93;;;;;;;26.11;53.64;99512.53;7309197;19;129239;-38
2023/07/10 08:21:33;;;;;;;48.20;2.93;;;;;;;26.13;53.73;99509.72;7310388;19;128904;-34
2023/07/10 08:23:58;;;;;;;25.70;1.60;;;;;;;26.16;53.68;99510.22;7310230;19;129166;-35
2023/07/10 08:26:24;;;;;;;24.87;1.63;;;;;;;26.16;53.91;99514.66;7310514;19;130501;-34
2023/07/10 08:28:49;;;;;;;24.30;1.60;;;;;;;26.16;53.78;99509.38;7306803;19;130380;-34
2023/07/10 08:31:17;;;;;;;30.90;1.83;;;;;;;26.17;53.76;99511.00;7308557;19;129026;-32
2023/07/10 08:33:43;;;;;;;66.80;4.30;;;;;;;26.16;54.41;99499.69;7309701;19;131745;-32
2023/07/10 08:36:08;;;;;;;31.30;1.93;;;;;;;26.16;53.63;99499.69;7310426;19;130516;-36
2023/07/10 08:38:35;;;;;;;52.73;3.10;;;;;;;26.16;53.92;99502.31;7309669;19;130636;-35
2023/07/10 08:41:08;;;;;;;41.42;2.30;;;;;;;25.91;51.07;99489.34;7307581;19;128994;-34
2023/07/10 08:43:38;;;;;;;28.52;1.85;;;;;;;25.56;50.11;99490.59;7310107;19;129979;-39
2023/07/10 08:46:10;;;;;;;48.13;2.60;;;;;;;25.48;50.33;99477.47;7308840;19;129464;-36
2023/07/10 08:48:49;;;;;;;45.83;2.70;;;;;;;25.40;50.32;99470.38;7305779;19;129379;-35
2023/07/10 08:51:21;;;;;;;37.25;2.17;;;;;;;25.80;53.80;99464.19;7306754;19;128864;-37
2023/07/10 08:54:03;;;;;;;37.13;2.42;;;;;;;26.03;53.30;99456.41;7309451;19;129971;-32
2023/07/10 08:56:34;;;;;;;29.58;1.88;;;;;;;26.07;53.99;99455.88;7310106;19;129397;-35
2023/07/10 08:59:14;;;;;;;44.30;2.65;;;;;;;26.10;53.65;99454.75;7308085;19;131742;-34
2023/07/10 09:01:44;;;;;;;30.42;1.83;;;;;;;26.12;53.79;99450.94;7309508;19;129570;-36
2023/07/10 09:04:16;;;;;;;47.85;2.75;;;;;;;26.16;53.95;99448.78;7307903;19;129238;-34
2023/07/10 09:06:53;;;;;;;42.35;2.50;;;;;;;26.16;53.84;99452.25;7307082;19;130183;-32
2023/07/10 09:09:24;;;;;;;49.27;2.83;;;;;;;26.16;54.04;99446.97;7308074;19;129827;-34
2023/07/10 09:11:51;;;;;;;25.85;1.55;;;;;;;26.16;54.04;99460.16;7314618;19;129118;-41
2023/07/10 09:14:17;;;;;;;24.52;1.58;;;;;;;26.16;54.03;99473.31;7315754;19;129700;-34
2023/07/10 09:16:45;;;;;;;28.50;1.70;;;;;;;26.16;54.10;99483.88;7315884;19;130280;-37
2023/07/10 09:19:15;;;;;;;69.00;3.97;;;;;;;26.17;53.79;99480.22;7313773;19;130306;-33
2023/07/10 09:21:41;;;;;;;36.63;2.20;;;;;;;25.73;51.17;99482.47;7316006;19;128803;-36
2023/07/10 09:24:17;;;;;;;62.33;3.88;;;;;;;25.58;50.72;99478.91;7315106;19;128652;-32
2023/07/10 09:26:43;;;;;;;37.45;2.30;;;;;;;25.44;50.01;99481.41;7314732;19;131478;-31
2023/07/10 09:29:11;;;;;;;55.57;3.40;;;;;;;25.61;53.85;99493.56;7313331;19;129179;-33
2023/07/10 09:31:55;;;;;;;55.20;2.95;;;;;;;25.95;53.38;99496.75;7315524;19;129701;-35
2023/07/10 09:34:28;;;;;;;61.30;3.72;;;;;;;26.05;53.50;99491.31;7314698;19;129668;-30
2023/07/10 09:36:56;;;;;;;30.48;1.88;;;;;;;26.06;54.07;99480.63;7315724;19;130298;-35
2023/07/10 09:39:28;;;;;;;54.45;3.30;;;;;;;26.11;53.84;99485.34;7313326;19;130610;-35
2023/07/10 09:41:58;;;;;;;26.52;1.52;;;;;;;26.11;54.01;99475.66;7315681;19;129836;-33
2023/07/10 09:44:34;;;;;;;77.32;4.63;;;;;;;26.06;53.85;99467.44;7313296;19;128884;-39
2023/07/10 09:47:09;;;;;;;64.18;3.70;;;;;;;26.16;53.84;99477.75;7313964;19;130185;-33
2023/07/10 09:49:46;;;;;;;58.67;3.65;;;;;;;26.16;53.95;99481.22;7314449;19;130812;-38
2023/07/10 09:52:19;;;;;;;27.23;1.58;;;;;;;26.15;53.75;99482.19;7315998;19;129038;-36
2023/07/10 09:54:45;;;;;;;25.55;1.63;;;;;;;26.16;54.12;99483.88;7314528;19;129647;-31
2023/07/10 09:57:16;;;;;;;70.43;4.30;;;;;;;26.18;54.09;99481.84;7313716;19;131741;-37
2023/07/10 09:59:53;;;;;;;61.60;3.63;;;;;;;26.18;54.41;99481.06;7313211;19;130366;-39
2023/07/10 10:02:26;;;;;;;;;;;;;;;25.64;51.63;99472.16;7315298;19;128810;-37
2023/07/10 10:05:03;;;;;;;53.97;3.40;;;;;;;25.46;51.40;99474.16;7315443;19;129083;-34
2023/07/10 10:07:39;;;;;;;30.67;2.03;;;;;;;25.44;50.09;99481.41;7312271;19;130257;-40
2023/07/10 10:10:23;;;;;;;28.15;1.70;;;;;;;25.76;53.63;99468.16;7312990;19;130548;-36
2023/07/10 10:13:03;;;;;;;43.13;2.65;;;;;;;25.87;53.24;99457.25;7313056;19;128980;-39
2023/07/10 10:16:08;;;;;;;18.92;1.20;;;;;;;26.06;53.33;99467.44;7314522;19;129360;-33
2023/07/10 10:18:55;;;;;;;28.98;1.83;;;;;;;26.09;53.87;99461.81;7313479;19;131336;-31
2023/07/10 10:21:21;;;;;;;8.15;0.63;;;;;;;26.12;53.71;99463.28;7313098;19;130356;-33
2023/07/10 10:23:50;;;;;;;25.00;1.58;;;;;;;26.13;53.63;99462.31;7314333;19;128789;-31
2023/07/10 10:26:23;;;;;;;78.53;4.60;;;;;;;26.15;54.22;99466.38;7313359;19;129408;-40
2023/07/10 10:29:14;;;;;;;39.65;2.33;;;;;;;26.17;53.83;99468.84;7311794;19;130366;-34
2023/07/10 10:31:46;;;;;;;37.25;2.13;;;;;;;26.13;53.43;99468.38;7312748;19;130507;-34
2023/07/10 10:34:33;;;;;;;57.20;3.50;;;;;;;26.18;54.05;99466.03;7313405;19;128921;-37
2023/07/10 10:37:24;;;;;;;49.27;3.07;;;;;;;26.15;53.85;99461.13;7314182;19;129154;-37
2023/07/10 10:40:04;;;;;;;27.75;1.83;;;;;;;26.19;54.29;99465.06;7313839;19;130777;-35
2023/07/10 10:42:36;;;;;;;36.72;2.47;;;;;;;25.75;51.77;99463.88;7312811;19;129727;-33
2023/07/10 10:45:12;;;;;;;33.53;2.05;;;;;;;25.53;50.13;99451.44;7314290;19;129331;-36
2023/07/10 10:47:48;;;;;;;55.45;3.47;;;;;;;25.43;50.15;99463.97;7310554;19;130019;-29
2023/07/10 10:50:41;;;;;;;12.57;0.82;;;;;;;25.59;53.60;99458.66;7311945;19;130192;-38
2023/07/10 10:53:25;;;;;;;44.03;2.55;;;;;;;25.90;53.35;99464.81;7311863;19;129293;-37
2023/07/10 10:56:15;;;;;;;4.85;0.55;;;;;;;26.00;53.37;99468.06;7312363;19;128934;-35
2023/07/10 10:59:13;;;;;;;52.58;3.22;;;;;;;26.10;54.04;99466.09;7310961;19;128922;-31
2023/07/10 11:01:48;;;;;;;55.97;3.37;;;;;;;26.12;54.10;99472.00;7311743;19;131077;-38
2023/07/10 11:04:37;;;;;;;31.63;1.92;;;;;;;26.16;53.61;99473.31;7312939;19;131014;-31
2023/07/10 11:07:16;;;;;;;49.80;3.17;;;;;;;26.18;54.28;99481.06;7311018;19;130650;-33
2023/07/10 11:09:47;;;;;;;35.45;2.17;;;;;;;26.15;53.69;99492.75;7312129;19;129003;-39
2023/07/10 11:12:22;;;;;;;48.97;2.80;;;;;;;26.18;53.96;99478.41;7312601;19;130244;-33
2023/07/10 11:14:50;;;;;;;38.58;2.40;;;;;;;26.18;54.34;99481.84;7312348;19;130353;-34
2023/07/10 11:17:16;;;;;;;40.25;2.60;;;;;;;26.16;53.99;99480.41;7312205;19;130202;-34
2023/07/10 11:19:42;;;;;;;11.07;1.03;;;;;;;26.08;54.49;99465.44;7311440;19;129384;-35
2023/07/10 11:22:31;;;;;;;73.23;4.17;;;;;;;25.83;52.18;99473.59;7311224;19;130151;-36
2023/07/10 11:24:58;;;;;;;44.10;2.50;;;;;;;25.63;49.69;99470.53;7310137;19;130173;-37